createdAt,value
2019-05-29T00:00:56.487Z,100177.08
2019-05-29T00:03:28.309Z,100180.78
2019-05-29T00:05:59.858Z,100186.80
2019-05-29T00:08:31.409Z,100186.36
2019-05-29T00:11:03.342Z,100193.30
2019-05-29T00:13:35.358Z,100197.63
2019-05-29T00:16:08.300Z,100211.65
2019-05-29T00:18:40.062Z,100206.45
2019-05-29T00:21:13.055Z,100207.64
2019-05-29T00:23:44.845Z,100210.42
2019-05-29T00:26:16.625Z,100212.17
2019-05-29T00:28:48.358Z,100216.08
2019-05-29T00:31:20.305Z,100217.45
2019-05-29T00:33:51.859Z,100218.72
2019-05-29T00:36:24.296Z,100224.83
2019-05-29T00:38:55.834Z,100230.23
2019-05-29T00:41:27.769Z,100230.28
2019-05-29T00:43:58.448Z,100231.64
2019-05-29T00:46:30.478Z,100237.14
2019-05-29T00:49:02.303Z,100244.03
2019-05-29T00:51:33.879Z,100247.73
2019-05-29T00:54:05.718Z,100239.86
2019-05-29T00:56:37.795Z,100240.91
2019-05-29T00:59:09.409Z,100246.23
2019-05-29T01:01:41.577Z,100246.55
2019-05-29T01:04:13.617Z,100252.06
2019-05-29T01:06:44.510Z,100252.06
2019-05-29T01:09:16.503Z,100255.25
2019-05-29T01:11:48.307Z,100245.23
2019-05-29T01:14:20.062Z,100245.23
2019-05-29T01:16:51.814Z,100270.66
2019-05-29T01:19:26.741Z,100268.80
2019-05-29T01:21:58.097Z,100270.03
2019-05-29T01:24:29.781Z,100275.34
2019-05-29T01:27:00.484Z,100272.69
2019-05-29T01:29:32.305Z,100278.91
2019-05-29T01:32:03.814Z,100292.92
2019-05-29T01:34:35.709Z,100293.89
2019-05-29T01:37:06.497Z,100291.83
2019-05-29T01:39:38.306Z,100298.30
2019-05-29T01:42:10.019Z,100306.47
2019-05-29T01:44:41.716Z,100304.83
2019-05-29T01:47:12.657Z,100304.73
2019-05-29T01:49:43.460Z,100314.38
2019-05-29T01:52:15.565Z,100314.38
2019-05-29T01:54:46.452Z,100323.38
2019-05-29T01:57:18.302Z,100323.59
2019-05-29T01:59:50.286Z,100333.44
2019-05-29T02:02:22.364Z,100330.62
2019-05-29T02:04:54.005Z,100338.58
2019-05-29T02:07:25.769Z,100342.53
2019-05-29T02:09:56.455Z,100343.23
2019-05-29T02:12:28.001Z,100342.73
2019-05-29T02:14:59.747Z,100343.47
2019-05-29T02:17:31.255Z,100343.64
2019-05-29T02:20:02.811Z,100345.67
2019-05-29T02:22:34.750Z,100346.69
2019-05-29T02:25:05.931Z,100352.87
2019-05-29T02:27:37.805Z,100357.12
2019-05-29T02:30:09.976Z,100361.88
2019-05-29T02:32:41.790Z,100362.58
2019-05-29T02:35:13.362Z,100372.64
2019-05-29T02:37:45.603Z,100366.98
2019-05-29T02:40:18.868Z,100375.05
2019-05-29T02:42:51.295Z,100375.05
2019-05-29T02:45:26.134Z,100376.73
2019-05-29T02:47:56.065Z,100378.75
2019-05-29T02:50:29.308Z,100391.66
2019-05-29T02:53:01.303Z,100388.78
2019-05-29T02:55:32.983Z,100384.52
2019-05-29T02:58:04.717Z,100394.44
2019-05-29T03:01:07.464Z,100412.16
2019-05-29T03:03:40.245Z,100411.77
2019-05-29T03:06:12.058Z,100417.98
2019-05-29T03:08:43.761Z,100422.84
2019-05-29T03:11:14.467Z,100426.77
2019-05-29T03:13:46.308Z,100426.77
2019-05-29T03:16:18.044Z,100430.67
2019-05-29T03:18:49.742Z,100430.53
2019-05-29T03:21:20.449Z,100437.34
2019-05-29T03:23:52.438Z,100441.31
2019-05-29T03:26:26.857Z,100445.23
2019-05-29T03:28:57.760Z,100451.83
2019-05-29T03:31:36.819Z,100456.12
2019-05-29T03:34:03.070Z,100464.99
2019-05-29T03:36:41.955Z,100465.66
2019-05-29T03:39:09.439Z,100473.86
2019-05-29T03:41:41.055Z,100481.42
2019-05-29T03:44:12.792Z,100483.39
2019-05-29T03:46:45.999Z,100490.06
2019-05-29T03:49:17.761Z,100496.33
2019-05-29T03:51:48.451Z,100505.20
2019-05-29T03:54:20.307Z,100504.67
2019-05-29T03:56:52.308Z,100502.45
2019-05-29T03:59:24.006Z,100511.98
2019-05-29T04:01:55.777Z,100517.14
2019-05-29T04:04:26.917Z,100512.91
2019-05-29T04:06:58.892Z,100528.70
2019-05-29T04:09:31.258Z,100533.66
2019-05-29T04:12:03.372Z,100539.23
2019-05-29T04:14:35.699Z,100540.45
2019-05-29T04:17:07.768Z,100548.79
2019-05-29T04:19:39.762Z,100551.52
2019-05-29T04:22:11.695Z,100556.13
2019-05-29T04:24:43.863Z,100563.63
2019-05-29T04:27:15.768Z,100564.97
2019-05-29T04:29:46.473Z,100571.95
2019-05-29T04:32:18.301Z,100573.31
2019-05-29T04:34:49.800Z,100578.97
2019-05-29T04:37:21.738Z,100583.06
2019-05-29T04:39:52.501Z,100583.23
2019-05-29T04:42:24.295Z,100584.58
2019-05-29T04:44:55.902Z,100597.53
2019-05-29T04:47:28.907Z,100601.63
2019-05-29T04:50:00.793Z,100608.44
2019-05-29T04:52:33.810Z,100617.10
2019-05-29T04:55:06.300Z,100623.80
2019-05-29T04:57:39.262Z,100617.83
2019-05-29T05:00:11.385Z,100625.11
2019-05-29T05:02:43.298Z,100630.56
2019-05-29T05:05:19.257Z,100631.09
2019-05-29T05:07:49.306Z,100639.78
2019-05-29T05:10:41.018Z,100641.98
2019-05-29T05:13:13.057Z,100651.34
2019-05-29T05:15:44.776Z,100661.39
2019-05-29T05:18:15.480Z,100667.16
2019-05-29T05:20:47.310Z,100674.97
2019-05-29T05:23:18.837Z,100676.34
2019-05-29T05:25:50.618Z,100678.91
2019-05-29T05:28:22.749Z,100684.71
2019-05-29T05:30:53.480Z,100684.71
2019-05-29T05:33:25.343Z,100686.91
2019-05-29T05:35:57.066Z,100700.03
2019-05-29T05:38:30.502Z,100707.98
2019-05-29T05:41:02.300Z,100709.55
2019-05-29T05:43:34.889Z,100709.55
2019-05-29T05:46:06.799Z,100711.27
2019-05-29T05:48:39.218Z,100722.18
2019-05-29T05:51:11.380Z,100712.28
2019-05-29T05:53:43.049Z,100720.09
2019-05-29T05:56:14.784Z,100728.98
2019-05-29T05:58:46.775Z,100723.20
2019-05-29T06:01:17.502Z,100732.20
2019-05-29T06:03:49.313Z,100731.87
2019-05-29T06:06:20.832Z,100739.73
2019-05-29T06:08:52.782Z,100741.41
2019-05-29T06:11:23.491Z,100742.05
2019-05-29T06:13:55.306Z,100754.83
2019-05-29T06:16:26.876Z,100754.78
2019-05-29T06:18:58.385Z,100754.78
2019-05-29T06:21:30.910Z,100758.87
2019-05-29T06:24:02.867Z,100763.28
2019-05-29T06:26:34.889Z,100761.92
2019-05-29T06:29:06.746Z,100763.39
2019-05-29T06:31:39.427Z,100771.62
2019-05-29T06:34:11.364Z,100760.61
2019-05-29T06:36:47.903Z,100760.61
2019-05-29T06:39:17.752Z,100776.59
2019-05-29T06:41:49.397Z,100781.00
2019-05-29T06:44:21.038Z,100782.00
2019-05-29T06:46:52.805Z,100788.49
2019-05-29T06:49:24.496Z,100789.54
2019-05-29T06:51:56.314Z,100792.73
2019-05-29T06:54:27.868Z,100804.65
2019-05-29T06:57:00.270Z,100805.96
2019-05-29T06:59:31.847Z,100806.16
2019-05-29T07:02:04.003Z,100806.48
2019-05-29T07:04:36.240Z,100812.66
2019-05-29T07:07:07.990Z,100817.27
2019-05-29T07:09:41.304Z,100824.25
2019-05-29T07:12:13.365Z,100821.20
2019-05-29T07:14:45.070Z,100827.34
2019-05-29T07:17:17.298Z,100833.47
2019-05-29T07:20:02.896Z,100836.84
2019-05-29T07:22:22.493Z,100842.30
2019-05-29T07:24:54.258Z,100839.92
2019-05-29T07:27:26.307Z,100843.48
2019-05-29T07:29:57.850Z,100850.27
2019-05-29T07:32:29.449Z,100853.03
2019-05-29T07:35:03.878Z,100847.70
2019-05-29T07:37:34.720Z,100859.09
2019-05-29T07:40:05.930Z,100854.55
2019-05-29T07:42:40.103Z,100867.11
2019-05-29T07:45:11.308Z,100867.15
2019-05-29T07:47:44.623Z,100866.30
2019-05-29T07:50:17.481Z,100864.22
2019-05-29T07:52:49.463Z,100870.20
2019-05-29T07:55:23.618Z,100878.05
2019-05-29T07:57:54.740Z,100878.05
2019-05-29T08:00:35.141Z,100875.65
2019-05-29T08:03:00.007Z,100873.56
2019-05-29T08:05:31.756Z,100871.36
2019-05-29T08:08:02.651Z,100869.83
2019-05-29T08:10:33.462Z,100882.42
2019-05-29T08:13:05.330Z,100882.42
2019-05-29T08:15:52.956Z,100884.27
2019-05-29T08:18:11.306Z,100887.16
2019-05-29T08:20:43.897Z,100886.99
2019-05-29T08:23:15.704Z,100890.92
2019-05-29T08:25:47.777Z,100887.31
2019-05-29T08:28:19.750Z,100890.05
2019-05-29T08:30:55.819Z,100892.56
2019-05-29T08:33:23.915Z,100898.23
2019-05-29T08:36:00.207Z,100900.80
2019-05-29T08:38:29.316Z,100904.79
2019-05-29T08:41:00.902Z,100898.33
2019-05-29T08:43:32.726Z,100902.10
2019-05-29T08:46:03.616Z,100908.25
2019-05-29T08:48:35.371Z,100906.52
2019-05-29T08:51:07.302Z,100906.52
2019-05-29T08:53:38.866Z,100910.98
2019-05-29T08:56:10.617Z,100912.18
2019-05-29T08:58:42.892Z,100907.20
2019-05-29T09:01:14.738Z,100907.20
2019-05-29T09:03:46.756Z,100919.47
2019-05-29T09:06:18.399Z,100921.84
2019-05-29T09:08:52.083Z,100923.76
2019-05-29T09:11:23.747Z,100925.94
2019-05-29T09:13:54.477Z,100927.86
2019-05-29T09:16:26.306Z,100933.28
2019-05-29T09:18:57.863Z,100930.43
2019-05-29T09:21:29.743Z,100931.79
2019-05-29T09:24:00.464Z,100933.64
2019-05-29T09:26:32.308Z,100927.91
2019-05-29T09:29:04.067Z,100930.95
2019-05-29T09:31:36.071Z,100930.08
2019-05-29T09:34:07.847Z,100933.64
2019-05-29T09:36:39.435Z,100939.94
2019-05-29T09:39:11.670Z,100934.16
2019-05-29T09:41:43.368Z,100920.41
2019-05-29T09:44:31.237Z,100920.41
2019-05-29T09:46:48.774Z,100942.02
2019-05-29T09:49:20.249Z,100943.42
2019-05-29T09:51:52.639Z,100938.30
2019-05-29T09:54:25.656Z,100958.91
2019-05-29T09:56:58.404Z,100954.83
2019-05-29T09:59:30.810Z,100954.30
2019-05-29T10:02:07.285Z,100961.44
2019-05-29T10:04:36.276Z,100962.13
2019-05-29T10:07:08.010Z,100955.98
2019-05-29T10:09:39.727Z,100960.59
2019-05-29T10:12:11.435Z,100958.67
2019-05-29T10:14:43.310Z,100959.03
2019-05-29T10:17:15.451Z,100961.11
2019-05-29T10:19:47.303Z,100961.77
2019-05-29T10:22:18.939Z,100973.88
2019-05-29T10:24:50.787Z,100976.77
2019-05-29T10:27:22.341Z,100980.86
2019-05-29T10:29:54.375Z,100968.06
2019-05-29T10:32:26.298Z,100963.64
2019-05-29T10:34:57.877Z,100968.06
2019-05-29T10:37:29.759Z,100973.88
2019-05-29T10:40:00.478Z,100977.29
2019-05-29T10:42:32.759Z,100972.67
2019-05-29T10:45:04.259Z,100974.03
2019-05-29T10:47:35.809Z,100972.34
2019-05-29T10:50:07.987Z,100975.23
2019-05-29T10:52:39.733Z,100976.92
2019-05-29T10:55:11.573Z,100979.50
2019-05-29T10:57:44.622Z,100969.94
2019-05-29T11:00:17.806Z,100969.94
2019-05-29T11:02:50.087Z,100971.47
2019-05-29T11:05:22.790Z,100969.42
2019-05-29T11:07:54.348Z,100975.55
2019-05-29T11:10:26.049Z,100978.48
2019-05-29T11:12:57.738Z,100974.72
2019-05-29T11:15:29.395Z,100979.82
2019-05-29T11:18:01.297Z,100973.35
2019-05-29T11:20:32.873Z,100972.51
2019-05-29T11:23:04.442Z,100976.09
2019-05-29T11:25:36.295Z,100963.13
2019-05-29T11:28:07.822Z,100970.80
2019-05-29T11:30:39.408Z,100964.81
2019-05-29T11:33:11.306Z,100965.53
2019-05-29T11:35:57.353Z,100965.00
2019-05-29T11:38:16.816Z,100972.83
2019-05-29T11:40:48.903Z,100973.34
2019-05-29T11:43:20.811Z,100965.84
2019-05-29T11:45:53.139Z,100963.84
2019-05-29T11:48:25.295Z,100970.26
2019-05-29T11:50:58.282Z,100967.53
2019-05-29T11:53:29.852Z,100968.94
2019-05-29T11:56:02.047Z,100971.83
2019-05-29T11:58:33.793Z,100961.59
2019-05-29T12:01:05.775Z,100975.72
2019-05-29T12:03:36.662Z,100968.94
2019-05-29T12:06:07.528Z,100969.27
2019-05-29T12:08:39.298Z,100965.69
2019-05-29T12:11:10.897Z,100965.69
2019-05-29T12:13:42.712Z,100966.48
2019-05-29T12:16:13.487Z,100969.58
2019-05-29T12:18:45.301Z,100970.78
2019-05-29T12:21:17.050Z,100971.78
2019-05-29T12:23:48.728Z,100971.26
2019-05-29T12:26:22.678Z,100977.41
2019-05-29T12:28:53.956Z,100973.66
2019-05-29T12:31:26.387Z,100976.23
2019-05-29T12:34:00.216Z,100959.70
2019-05-29T12:36:31.474Z,100971.30
2019-05-29T12:39:04.215Z,100972.66
2019-05-29T12:41:36.162Z,100971.98
2019-05-29T12:44:08.297Z,100972.66
2019-05-29T12:46:40.295Z,100980.02
2019-05-29T12:49:12.299Z,100971.83
2019-05-29T12:51:44.259Z,100972.19
2019-05-29T12:54:16.267Z,100964.32
2019-05-29T12:56:47.859Z,100967.22
2019-05-29T12:59:19.797Z,100963.13
2019-05-29T13:01:51.598Z,100956.63
2019-05-29T13:04:23.339Z,100957.98
2019-05-29T13:06:56.222Z,100960.06
2019-05-29T13:09:27.839Z,100965.52
2019-05-29T13:12:00.628Z,100966.54
2019-05-29T13:14:31.444Z,100970.27
2019-05-29T13:17:05.039Z,100968.59
2019-05-29T13:19:36.839Z,100977.80
2019-05-29T13:22:08.726Z,100969.09
2019-05-29T13:24:39.452Z,100968.25
2019-05-29T13:27:11.307Z,100972.67
2019-05-29T13:29:44.306Z,100965.20
2019-05-29T13:32:16.298Z,100958.03
2019-05-29T13:34:48.299Z,100967.74
2019-05-29T13:37:20.643Z,100969.98
2019-05-29T13:39:52.417Z,100966.38
2019-05-29T13:42:24.303Z,100966.38
2019-05-29T13:44:59.030Z,100970.66
2019-05-29T13:47:29.831Z,100968.25
2019-05-29T13:50:07.458Z,100970.98
2019-05-29T13:52:35.419Z,100969.59
2019-05-29T13:55:08.840Z,100967.22
2019-05-29T13:57:40.594Z,100970.11
2019-05-29T14:00:31.742Z,100970.62
2019-05-29T14:02:45.812Z,100975.41
2019-05-29T14:05:17.782Z,100966.54
2019-05-29T14:07:49.390Z,100967.42
2019-05-29T14:10:21.581Z,100970.99
2019-05-29T14:12:53.390Z,100973.20
2019-05-29T14:15:25.432Z,100973.20
2019-05-29T14:17:57.300Z,100968.06
2019-05-29T14:20:28.860Z,100971.48
2019-05-29T14:23:01.268Z,100973.03
2019-05-29T14:25:33.006Z,100978.81
2019-05-29T14:28:04.762Z,100984.80
2019-05-29T14:30:36.753Z,100991.09
2019-05-29T14:33:11.322Z,100984.44
2019-05-29T14:35:41.742Z,100985.47
2019-05-29T14:38:14.932Z,100985.31
2019-05-29T14:40:45.807Z,100992.13
2019-05-29T14:43:17.788Z,100986.32
2019-05-29T14:45:48.491Z,100985.31
2019-05-29T14:48:20.305Z,100989.76
2019-05-29T14:50:52.303Z,100989.56
2019-05-29T14:53:24.321Z,100991.45
2019-05-29T14:55:56.305Z,100987.36
2019-05-29T14:58:28.429Z,100993.66
2019-05-29T15:01:00.309Z,100990.77
2019-05-29T15:03:32.056Z,100996.58
2019-05-29T15:06:03.792Z,100994.21
2019-05-29T15:08:35.449Z,100996.39
2019-05-29T15:11:07.938Z,100996.42
2019-05-29T15:13:39.766Z,101002.04
2019-05-29T15:16:10.887Z,100995.70
2019-05-29T15:18:42.816Z,100997.59
2019-05-29T15:21:15.391Z,100998.08
2019-05-29T15:23:48.302Z,100979.56
2019-05-29T15:26:20.289Z,100979.56
2019-05-29T15:28:52.404Z,100995.55
2019-05-29T15:31:24.087Z,100999.99
2019-05-29T15:33:55.810Z,100990.25
2019-05-29T15:36:27.574Z,100989.41
2019-05-29T15:38:59.435Z,100990.61
2019-05-29T15:41:31.067Z,100990.61
2019-05-29T15:44:02.815Z,101008.83
2019-05-29T15:46:34.709Z,101001.52
2019-05-29T15:49:06.793Z,101001.52
2019-05-29T15:51:39.301Z,101006.26
2019-05-29T15:54:11.261Z,101005.09
2019-05-29T15:56:43.077Z,101008.17
2019-05-29T15:59:16.576Z,101012.43
2019-05-29T16:01:48.308Z,101012.59
2019-05-29T16:04:21.012Z,101006.98
2019-05-29T16:06:55.141Z,101004.25
2019-05-29T16:09:27.052Z,101008.83
2019-05-29T16:11:59.306Z,101005.28
2019-05-29T16:14:30.878Z,101008.17
2019-05-29T16:17:02.406Z,101007.66
2019-05-29T16:19:34.326Z,101009.51
2019-05-29T16:22:06.298Z,101019.74
2019-05-29T16:24:38.058Z,101014.80
2019-05-29T16:27:10.607Z,101015.65
2019-05-29T16:29:42.417Z,101018.38
2019-05-29T16:32:15.988Z,101021.78
2019-05-29T16:34:47.768Z,101022.83
2019-05-29T16:37:19.356Z,101022.14
2019-05-29T16:39:51.398Z,101025.55
2019-05-29T16:42:23.075Z,101024.38
2019-05-29T16:44:55.291Z,101024.05
2019-05-29T16:47:27.307Z,101027.27
2019-05-29T16:49:59.068Z,101030.68
2019-05-29T16:52:30.748Z,101026.95
2019-05-29T16:55:01.564Z,101035.78
2019-05-29T16:57:32.516Z,101033.05
2019-05-29T17:00:04.654Z,101034.42
2019-05-29T17:02:36.479Z,101032.75
2019-05-29T17:05:08.313Z,101032.75
2019-05-29T17:07:40.067Z,101046.20
2019-05-29T17:10:11.797Z,101050.64
2019-05-29T17:12:43.466Z,101043.31
2019-05-29T17:15:16.714Z,101051.50
2019-05-29T17:17:48.751Z,101052.15
2019-05-29T17:20:36.496Z,101060.33
2019-05-29T17:23:08.734Z,101062.73
2019-05-29T17:25:40.799Z,101067.51
2019-05-29T17:28:11.492Z,101063.06
2019-05-29T17:30:43.753Z,101069.88
2019-05-29T17:33:15.077Z,101069.88
2019-05-29T17:35:46.784Z,101065.81
2019-05-29T17:38:18.931Z,101066.47
2019-05-29T17:40:50.919Z,101075.52
2019-05-29T17:43:25.398Z,101070.23
2019-05-29T17:45:56.749Z,101068.36
2019-05-29T17:48:27.445Z,101077.93
2019-05-29T17:50:59.263Z,101080.81
2019-05-29T17:53:31.303Z,101083.70
2019-05-29T17:56:02.836Z,101083.88
2019-05-29T17:58:34.747Z,101083.55
2019-05-29T18:01:05.615Z,101082.36
2019-05-29T18:03:37.796Z,101092.94
2019-05-29T18:06:09.787Z,101092.94
2019-05-29T18:08:40.871Z,101094.47
2019-05-29T18:11:12.814Z,101092.43
2019-05-29T18:13:44.622Z,101098.89
2019-05-29T18:16:17.356Z,101102.66
2019-05-29T18:18:49.058Z,101102.66
2019-05-29T18:21:21.594Z,101107.75
2019-05-29T18:23:53.671Z,101107.76
2019-05-29T18:26:27.457Z,101104.53
2019-05-29T18:28:59.314Z,101114.89
2019-05-29T18:31:30.879Z,101114.55
2019-05-29T18:34:02.631Z,101120.53
2019-05-29T18:36:33.746Z,101121.04
2019-05-29T18:39:04.298Z,101125.98
2019-05-29T18:41:36.311Z,101123.09
2019-05-29T18:44:08.058Z,101125.64
2019-05-29T18:46:39.801Z,101127.54
2019-05-29T18:49:14.579Z,101127.53
2019-05-29T18:51:45.334Z,101123.78
2019-05-29T18:54:16.879Z,101130.28
2019-05-29T18:57:13.018Z,101134.87
2019-05-29T18:59:21.574Z,101133.00
2019-05-29T19:01:53.333Z,101137.75
2019-05-29T19:04:25.552Z,101137.75
2019-05-29T19:06:56.616Z,101142.34
2019-05-29T19:09:28.372Z,101144.06
2019-05-29T19:12:00.314Z,101144.06
2019-05-29T19:14:32.555Z,101147.31
2019-05-29T19:17:04.825Z,101153.97
2019-05-29T19:19:36.642Z,101153.97
2019-05-29T19:22:07.488Z,101164.02
2019-05-29T19:24:39.406Z,101164.02
2019-05-29T19:27:11.865Z,101162.30
2019-05-29T19:29:45.487Z,101169.63
2019-05-29T19:32:17.267Z,101172.19
2019-05-29T19:34:48.825Z,101176.80
2019-05-29T19:37:20.765Z,101178.00
2019-05-29T19:39:51.492Z,101181.05
2019-05-29T19:42:24.085Z,101184.66
2019-05-29T19:44:55.765Z,101184.30
2019-05-29T19:47:26.624Z,101194.71
2019-05-29T19:49:58.762Z,101188.90
2019-05-29T19:52:29.481Z,101188.90
2019-05-29T19:55:01.312Z,101191.11
2019-05-29T19:57:50.745Z,101194.70
2019-05-29T20:00:07.723Z,101200.50
2019-05-29T20:02:39.080Z,101210.55
2019-05-29T20:05:10.782Z,101206.63
2019-05-29T20:07:41.493Z,101210.20
2019-05-29T20:10:13.313Z,101211.05
2019-05-29T20:12:44.882Z,101212.75
2019-05-29T20:15:17.066Z,101217.02
2019-05-29T20:17:49.322Z,101218.88
2019-05-29T20:20:21.394Z,101220.58
2019-05-29T20:22:53.324Z,101219.22
2019-05-29T20:25:24.946Z,101220.58
2019-05-29T20:28:05.829Z,101223.98
2019-05-29T20:30:30.744Z,101223.45
2019-05-29T20:33:01.507Z,101228.39
2019-05-29T20:35:33.320Z,101226.36
2019-05-29T20:38:06.683Z,101229.75
2019-05-29T20:40:39.439Z,101230.42
2019-05-29T20:43:11.383Z,101232.14
2019-05-29T20:48:13.354Z,101237.60
2019-05-29T20:50:45.309Z,101238.27
2019-05-29T20:53:16.825Z,101235.70
2019-05-29T20:55:48.590Z,101242.16
2019-05-29T20:58:24.557Z,101241.31
2019-05-29T21:00:53.765Z,101241.31
2019-05-29T21:03:24.452Z,101246.25
2019-05-29T21:05:56.053Z,101244.02
2019-05-29T21:08:27.813Z,101246.59
2019-05-29T21:10:59.400Z,101251.34
2019-05-29T21:13:31.275Z,101247.58
2019-05-29T21:16:03.329Z,101255.25
2019-05-29T21:18:35.830Z,101256.43
2019-05-29T21:21:07.725Z,101256.95
2019-05-29T21:23:38.517Z,101261.55
2019-05-29T21:26:10.305Z,101264.42
2019-05-29T21:28:48.112Z,101265.05
2019-05-29T21:31:17.084Z,101271.66
2019-05-29T21:33:49.462Z,101270.47
2019-05-29T21:36:21.352Z,101263.52
2019-05-29T21:38:53.666Z,101263.52
2019-05-29T21:41:24.483Z,101269.48
2019-05-29T21:43:56.272Z,101266.69
2019-05-29T21:46:34.319Z,101272.50
2019-05-29T21:49:05.860Z,101273.72
2019-05-29T21:51:37.557Z,101271.14
2019-05-29T21:54:09.279Z,101270.59
2019-05-29T21:56:41.592Z,101270.59
2019-05-29T21:59:13.389Z,101273.20
2019-05-29T22:01:46.331Z,101273.20
2019-05-29T22:04:18.316Z,101276.95
2019-05-29T22:06:49.833Z,101277.95
2019-05-29T22:09:21.682Z,101272.69
2019-05-29T22:11:54.315Z,101274.86
2019-05-29T22:14:26.057Z,101274.86
2019-05-29T22:16:59.041Z,101276.25
2019-05-29T22:19:31.432Z,101273.86
2019-05-29T22:22:03.746Z,101275.52
2019-05-29T22:24:35.754Z,101280.83
2019-05-29T22:27:07.387Z,101279.79
2019-05-29T22:29:39.053Z,101283.36
2019-05-29T22:32:10.701Z,101287.41
2019-05-29T22:34:41.485Z,101285.06
2019-05-29T22:37:13.302Z,101288.16
2019-05-29T22:39:46.711Z,101285.02
2019-05-29T22:42:17.477Z,101288.81
2019-05-29T22:44:49.310Z,101288.44
2019-05-29T22:47:21.321Z,101292.34
2019-05-29T22:49:53.923Z,101293.19
2019-05-29T22:52:25.777Z,101287.22
2019-05-29T22:54:58.010Z,101293.52
2019-05-29T22:57:29.882Z,101289.77
2019-05-29T23:00:02.520Z,101295.06
2019-05-29T23:02:33.471Z,101287.05
2019-05-29T23:05:05.813Z,101285.86
2019-05-29T23:07:37.416Z,101289.58
2019-05-29T23:10:09.792Z,101283.95
2019-05-29T23:12:41.357Z,101278.54
2019-05-29T23:15:13.063Z,101288.59
2019-05-29T23:17:44.771Z,101277.51
2019-05-29T23:20:17.069Z,101282.25
2019-05-29T23:22:49.306Z,101280.55
2019-05-29T23:25:20.811Z,101277.98
2019-05-29T23:27:52.825Z,101282.55
2019-05-29T23:30:24.740Z,101288.50
2019-05-29T23:32:55.489Z,101284.41
2019-05-29T23:35:27.779Z,101283.91
2019-05-29T23:37:59.362Z,101281.33
2019-05-29T23:40:31.067Z,101275.73
2019-05-29T23:43:03.683Z,101272.20
2019-05-29T23:45:35.255Z,101271.66
2019-05-29T23:48:06.967Z,101269.50
2019-05-29T23:50:38.772Z,101269.25
2019-05-29T23:53:10.600Z,101268.41
2019-05-29T23:55:42.819Z,101264.84
2019-05-29T23:58:15.010Z,101264.84
